createdAt,value
2023-04-23T06:01:58.465Z,2.00
2023-04-23T06:07:16.418Z,2.58
2023-04-23T06:09:42.915Z,2.50
2023-04-23T06:12:10.477Z,2.60
2023-04-23T06:14:36.957Z,2.47
2023-04-23T06:17:03.430Z,2.40
2023-04-23T06:19:29.866Z,2.70
2023-04-23T06:21:56.397Z,2.28
2023-04-23T06:24:22.833Z,2.42
2023-04-23T06:26:49.419Z,2.22
2023-04-23T06:29:15.870Z,2.30
2023-04-23T06:31:42.347Z,2.33
2023-04-23T06:34:08.962Z,2.20
2023-04-23T06:36:35.445Z,2.38
2023-04-23T06:39:01.859Z,1.85
2023-04-23T06:41:28.301Z,1.90
2023-04-23T06:43:54.745Z,2.45
2023-04-23T06:46:21.361Z,2.10
2023-04-23T06:48:47.973Z,1.83
2023-04-23T06:51:14.748Z,1.70
2023-04-23T06:53:41.370Z,1.95
2023-04-23T06:56:08.462Z,1.80
2023-04-23T06:58:34.992Z,2.03
2023-04-23T07:01:04.070Z,2.20
2023-04-23T07:03:31.637Z,2.10
2023-04-23T07:05:58.378Z,1.98
2023-04-23T07:08:24.880Z,2.22
2023-04-23T07:10:51.823Z,2.00
2023-04-23T07:13:18.099Z,1.95
2023-04-23T07:15:44.588Z,2.10
2023-04-23T07:18:11.187Z,2.00
2023-04-23T07:20:37.681Z,1.90
2023-04-23T07:23:04.360Z,1.90
2023-04-23T07:25:31.270Z,1.80
2023-04-23T07:27:57.953Z,1.85
2023-04-23T07:30:25.409Z,1.73
2023-04-23T07:32:52.408Z,1.90
2023-04-23T07:35:19.075Z,1.63
2023-04-23T07:37:45.677Z,1.63
2023-04-23T07:40:12.519Z,1.70
2023-04-23T07:42:39.716Z,1.48
2023-04-23T07:45:06.647Z,1.40
2023-04-23T07:47:33.143Z,1.45
2023-04-23T07:49:59.657Z,1.20
2023-04-23T07:52:26.184Z,1.25
2023-04-23T07:54:52.597Z,1.30
2023-04-23T07:57:19.084Z,1.00
2023-04-23T07:59:45.561Z,1.42
2023-04-23T08:02:12.105Z,1.10
2023-04-23T08:04:38.682Z,1.30
2023-04-23T08:07:05.464Z,1.20
2023-04-23T08:09:31.900Z,1.50
2023-04-23T08:11:58.555Z,1.50
2023-04-23T08:14:25.111Z,1.50
2023-04-23T08:16:53.321Z,1.30
2023-04-23T08:19:19.943Z,1.33
2023-04-23T08:21:46.360Z,1.60
2023-04-23T08:24:12.814Z,1.17
2023-04-23T08:26:39.281Z,1.48
2023-04-23T08:29:06.182Z,1.40
2023-04-23T08:31:32.755Z,1.65
2023-04-23T08:33:59.609Z,1.77
2023-04-23T08:36:27.517Z,1.95
2023-04-23T08:38:54.052Z,1.77
2023-04-23T08:41:22.745Z,1.40
2023-04-23T08:43:53.456Z,1.85
2023-04-23T08:46:20.041Z,1.92
2023-04-23T08:48:47.478Z,1.90
2023-04-23T08:51:17.635Z,2.00
2023-04-23T08:53:44.401Z,1.85
2023-04-23T08:56:10.885Z,1.90
2023-04-23T08:58:37.313Z,2.25
2023-04-23T09:01:03.816Z,2.15
2023-04-23T09:03:30.613Z,2.25
2023-04-23T09:05:57.064Z,2.03
2023-04-23T09:08:23.560Z,1.85
2023-04-23T09:10:50.445Z,2.10
2023-04-23T09:13:17.003Z,2.10
2023-04-23T09:15:43.703Z,1.85
2023-04-23T09:18:10.829Z,2.00
2023-04-23T09:20:37.548Z,2.10
2023-04-23T09:23:07.728Z,2.05
2023-04-23T09:25:35.020Z,2.05
2023-04-23T09:28:01.632Z,2.10
2023-04-23T09:30:28.280Z,2.10
2023-04-23T09:32:55.388Z,2.42
2023-04-23T09:35:22.444Z,2.30
2023-04-23T09:37:50.232Z,2.35
2023-04-23T09:40:18.506Z,2.42
2023-04-23T09:42:53.145Z,2.00
2023-04-23T09:45:20.267Z,2.20
2023-04-23T09:47:52.243Z,2.00
2023-04-23T09:50:39.580Z,2.28
2023-04-23T09:53:07.276Z,2.22
2023-04-23T09:55:39.370Z,2.05
2023-04-23T09:58:13.682Z,2.13
2023-04-23T10:00:40.941Z,2.40
2023-04-23T10:03:08.682Z,2.38
2023-04-23T10:05:59.664Z,2.50
2023-04-23T10:08:27.170Z,2.58
2023-04-23T10:11:06.026Z,2.50
2023-04-23T10:13:36.636Z,2.60
2023-04-23T10:16:18.118Z,2.30
2023-04-23T10:18:48.225Z,2.10
2023-04-23T10:21:15.086Z,2.20
2023-04-23T10:23:42.915Z,2.15
2023-04-23T10:26:09.443Z,2.45
2023-04-23T10:28:36.236Z,2.10
2023-04-23T10:31:03.928Z,2.10
2023-04-23T10:33:39.881Z,1.88
2023-04-23T10:36:09.959Z,2.08
2023-04-23T10:38:45.446Z,2.22
2023-04-23T10:41:22.046Z,2.00
2023-04-23T10:43:48.498Z,1.90
2023-04-23T10:46:30.909Z,1.60
2023-04-23T10:49:16.557Z,1.50
2023-04-23T10:52:17.704Z,1.67
2023-04-23T10:54:33.433Z,1.80
2023-04-23T10:57:04.951Z,1.70
2023-04-23T10:59:32.666Z,1.55
2023-04-23T11:02:06.589Z,1.60
2023-04-23T11:04:34.150Z,1.98
2023-04-23T11:07:08.252Z,1.50
2023-04-23T11:09:34.656Z,1.55
2023-04-23T11:12:01.994Z,1.58
2023-04-23T11:14:41.452Z,1.50
2023-04-23T11:17:08.259Z,1.60
2023-04-23T11:19:38.135Z,1.50
2023-04-23T11:22:18.602Z,1.50
2023-04-23T11:24:48.273Z,1.60
2023-04-23T11:27:17.514Z,1.60
2023-04-23T11:29:45.502Z,1.67
2023-04-23T11:32:14.163Z,1.40
2023-04-23T11:34:41.701Z,1.67
2023-04-23T11:37:10.347Z,1.70
2023-04-23T11:39:36.990Z,1.73
2023-04-23T11:42:05.997Z,1.70
2023-04-23T11:44:32.473Z,1.50
2023-04-23T11:47:02.581Z,1.45
2023-04-23T11:49:29.196Z,1.70
2023-04-23T11:51:55.740Z,1.48
2023-04-23T11:54:27.322Z,1.60
2023-04-23T11:56:54.139Z,1.70
2023-04-23T11:59:20.725Z,2.03
2023-04-23T12:01:49.009Z,1.60
2023-04-23T12:04:17.133Z,1.35
2023-04-23T12:06:44.699Z,1.70
2023-04-23T12:09:12.314Z,1.80
2023-04-23T12:11:40.214Z,1.67
2023-04-23T12:14:08.473Z,1.77
2023-04-23T12:16:45.014Z,1.73
2023-04-23T12:19:19.169Z,1.75
2023-04-23T12:21:55.651Z,1.73
2023-04-23T12:24:23.408Z,1.50
2023-04-23T12:26:54.639Z,1.50
2023-04-23T12:29:24.487Z,1.50
2023-04-23T12:31:52.301Z,1.77
2023-04-23T12:34:20.060Z,1.60
2023-04-23T12:36:48.338Z,1.60
2023-04-23T12:39:36.483Z,1.58
2023-04-23T12:42:05.475Z,1.50
2023-04-23T12:44:35.670Z,1.55
2023-04-23T12:47:09.437Z,1.70
2023-04-23T12:49:36.535Z,1.30
2023-04-23T12:52:03.635Z,1.55
2023-04-23T12:54:34.234Z,1.52
2023-04-23T12:57:02.834Z,1.80
2023-04-23T12:59:29.743Z,1.58
2023-04-23T13:01:56.657Z,1.80
2023-04-23T13:04:23.126Z,1.50
2023-04-23T13:06:50.645Z,1.63
2023-04-23T13:09:17.309Z,1.40
2023-04-23T13:11:44.014Z,1.60
2023-04-23T13:14:10.712Z,1.40
2023-04-23T13:16:37.620Z,1.50
2023-04-23T13:19:04.849Z,2.72
2023-04-23T13:21:31.277Z,2.33
2023-04-23T13:23:57.805Z,2.40
2023-04-23T13:26:24.514Z,2.40
2023-04-23T13:28:51.046Z,2.50
2023-04-23T13:31:17.582Z,2.58
2023-04-23T13:33:44.065Z,2.70
2023-04-23T13:36:10.551Z,2.38
2023-04-23T13:38:37.091Z,2.67
2023-04-23T13:41:03.603Z,2.30
2023-04-23T13:43:30.078Z,2.60
2023-04-23T13:45:56.552Z,2.50
2023-04-23T13:48:23.656Z,2.13
2023-04-23T13:50:50.145Z,2.33
2023-04-23T13:53:16.816Z,1.90
2023-04-23T13:55:43.287Z,2.00
2023-04-23T13:58:12.146Z,2.25
2023-04-23T14:00:38.883Z,2.28
2023-04-23T14:03:05.425Z,2.30
2023-04-23T14:05:31.967Z,2.58
2023-04-23T14:07:58.407Z,2.50
2023-04-23T14:10:24.843Z,2.33
2023-04-23T14:12:51.331Z,2.22
2023-04-23T14:15:17.750Z,2.25
2023-04-23T14:17:45.701Z,2.03
2023-04-23T14:20:14.155Z,2.10
2023-04-23T14:22:41.980Z,1.90
2023-04-23T14:25:29.461Z,2.20
2023-04-23T14:27:56.252Z,2.20
2023-04-23T14:30:24.868Z,2.25
2023-04-23T14:32:51.354Z,2.13
2023-04-23T14:35:21.215Z,2.00
2023-04-23T14:37:53.214Z,2.10
2023-04-23T14:40:19.844Z,2.08
2023-04-23T14:42:47.554Z,2.10
2023-04-23T14:45:15.605Z,2.40
2023-04-23T14:47:47.666Z,2.10
2023-04-23T14:50:15.963Z,2.00
2023-04-23T14:52:43.908Z,1.83
2023-04-23T14:55:11.322Z,2.03
2023-04-23T14:57:37.756Z,2.03
2023-04-23T15:00:05.317Z,2.20
2023-04-23T15:02:32.703Z,2.30
2023-04-23T15:04:59.155Z,1.67
2023-04-23T15:07:25.766Z,2.13
2023-04-23T15:09:52.200Z,1.92
2023-04-23T15:12:36.830Z,2.10
2023-04-23T15:15:07.345Z,1.77
2023-04-23T15:17:33.774Z,2.00
2023-04-23T15:20:00.342Z,1.90
2023-04-23T15:22:26.760Z,2.03
2023-04-23T15:24:53.167Z,1.92
2023-04-23T15:27:19.577Z,1.95
2023-04-23T15:29:46.005Z,2.05
2023-04-23T15:32:12.498Z,1.60
2023-04-23T15:34:38.899Z,1.90
2023-04-23T15:37:05.669Z,1.90
2023-04-23T15:39:32.115Z,1.80
2023-04-23T15:41:58.541Z,1.70
2023-04-23T15:44:25.988Z,1.92
2023-04-23T15:46:52.463Z,1.83
2023-04-23T15:49:19.290Z,1.70
2023-04-23T15:51:45.808Z,1.63
2023-04-23T15:54:12.424Z,1.52
2023-04-23T15:56:38.997Z,1.35
2023-04-23T15:59:06.019Z,1.40
2023-04-23T16:01:32.551Z,1.20
2023-04-23T16:06:28.528Z,1.52
2023-04-23T16:08:54.974Z,1.60
2023-04-23T16:11:22.958Z,1.38
2023-04-23T16:13:49.408Z,1.42
2023-04-23T16:16:15.828Z,1.67
2023-04-23T16:18:42.291Z,1.48
2023-04-23T16:21:09.174Z,1.73
2023-04-23T16:23:35.826Z,1.73
2023-04-23T16:26:02.250Z,1.40
2023-04-23T16:28:28.946Z,1.50
2023-04-23T16:30:59.187Z,1.38
2023-04-23T16:33:28.255Z,1.60
2023-04-23T16:35:56.956Z,1.60
2023-04-23T16:38:23.522Z,1.65
2023-04-23T16:40:50.363Z,1.30
2023-04-23T16:43:17.165Z,0.80
2023-04-23T16:45:43.654Z,0.70
2023-04-23T16:48:13.809Z,0.75
2023-04-23T16:50:42.699Z,1.20
2023-04-23T16:53:10.803Z,1.10
2023-04-23T16:55:38.136Z,1.13
2023-04-23T16:58:04.959Z,1.15
2023-04-23T17:00:32.133Z,0.90
2023-04-23T17:02:58.701Z,1.33
2023-04-23T17:05:25.285Z,1.15
2023-04-23T17:10:33.197Z,1.35
2023-04-23T17:12:59.720Z,1.60
2023-04-23T17:15:26.300Z,1.70
2023-04-23T17:17:53.992Z,1.33
2023-04-23T17:20:22.037Z,1.10
2023-04-23T17:22:48.474Z,1.10
2023-04-23T17:25:14.986Z,0.82
2023-04-23T17:27:41.752Z,0.75
2023-04-23T17:30:09.807Z,0.82
2023-04-23T17:32:36.257Z,0.50
2023-04-23T17:35:09.297Z,0.40
2023-04-23T17:37:36.894Z,0.47
2023-04-23T17:40:05.719Z,0.60
2023-04-23T17:42:32.259Z,0.40
2023-04-23T17:44:58.706Z,0.70
2023-04-23T17:47:26.302Z,0.30
2023-04-23T17:49:52.781Z,0.40
2023-04-23T17:52:19.282Z,0.50
2023-04-23T17:54:46.043Z,0.40
2023-04-23T17:57:12.497Z,0.50
2023-04-23T17:59:38.949Z,0.60
2023-04-23T18:02:06.097Z,0.90
2023-04-23T18:04:34.659Z,0.85
2023-04-23T18:07:01.210Z,0.30
2023-04-23T18:09:27.689Z,0.28
2023-04-23T18:11:56.189Z,0.40
2023-04-23T18:14:23.012Z,0.30
2023-04-23T18:16:51.932Z,0.20
2023-04-23T18:19:18.531Z,0.20
2023-04-23T18:21:45.853Z,0.10
2023-04-23T18:24:13.125Z,0.08
2023-04-23T18:26:39.540Z,0.28
2023-04-23T18:29:06.041Z,0.13
2023-04-23T18:31:32.533Z,0.10
2023-04-23T18:33:59.570Z,0.20
2023-04-23T18:36:41.790Z,0.30
2023-04-23T18:39:08.796Z,0.10
2023-04-23T18:41:35.992Z,0.15
2023-04-23T18:44:02.567Z,0.00
2023-04-23T18:46:31.206Z,0.10
2023-04-23T18:49:57.531Z,0.20
2023-04-23T18:52:25.019Z,0.20
2023-04-23T18:54:52.491Z,0.25
2023-04-23T18:57:19.224Z,0.17
2023-04-23T18:59:45.727Z,0.13
2023-04-23T19:02:18.781Z,0.17
2023-04-23T19:04:51.385Z,0.10
2023-04-23T19:07:17.904Z,0.20
2023-04-23T19:09:44.628Z,0.50
2023-04-23T19:12:11.239Z,0.93
2023-04-23T19:14:37.786Z,1.23
2023-04-23T19:17:04.311Z,1.40
2023-04-23T19:19:32.011Z,0.73
2023-04-23T19:21:58.494Z,0.30
2023-04-23T19:24:24.960Z,0.70
2023-04-23T19:26:51.419Z,0.90
2023-04-23T19:29:17.857Z,0.50
2023-04-23T19:31:44.296Z,0.40
2023-04-23T19:34:11.010Z,0.40
2023-04-23T19:36:37.446Z,0.60
2023-04-23T19:39:04.080Z,0.50
2023-04-23T19:41:30.487Z,0.32
2023-04-23T19:43:56.936Z,0.40
2023-04-23T19:46:23.466Z,0.30
2023-04-23T19:48:49.879Z,0.30
2023-04-23T19:51:16.295Z,0.20
2023-04-23T19:53:42.748Z,0.32
2023-04-23T19:56:12.991Z,0.20
2023-04-23T19:58:40.405Z,0.28
2023-04-23T20:01:07.826Z,0.20
2023-04-23T20:03:37.875Z,0.50
2023-04-23T20:06:04.522Z,0.60
2023-04-23T20:08:41.551Z,0.70
2023-04-23T20:11:20.728Z,0.90
2023-04-23T20:13:47.171Z,0.77
2023-04-23T20:16:13.706Z,1.00
2023-04-23T20:18:42.581Z,0.63
2023-04-23T20:21:11.799Z,0.60
2023-04-23T20:23:40.057Z,0.40
2023-04-23T20:26:07.582Z,0.35
2023-04-23T20:28:40.796Z,0.30
2023-04-23T20:31:07.239Z,0.30
2023-04-23T20:33:33.699Z,0.20
2023-04-23T20:36:01.567Z,0.30
2023-04-23T20:38:30.672Z,0.40
2023-04-23T20:41:02.623Z,0.45
2023-04-23T20:43:29.551Z,0.45
2023-04-23T20:45:56.606Z,0.40
2023-04-23T20:54:00.482Z,0.30
2023-04-23T20:56:43.836Z,0.30
2023-04-23T21:02:28.037Z,0.30
2023-04-23T21:05:18.978Z,0.25
2023-04-23T21:07:53.258Z,0.20
2023-04-23T21:16:42.003Z,0.22
2023-04-23T21:25:07.317Z,0.38
2023-04-23T21:27:56.664Z,0.38
2023-04-23T21:30:36.892Z,0.40
2023-04-23T21:33:17.351Z,0.38
2023-04-23T21:35:48.364Z,0.38
2023-04-23T21:38:22.757Z,0.38
2023-04-23T21:40:59.196Z,0.40
2023-04-23T21:43:35.873Z,0.52
2023-04-23T21:46:04.380Z,0.35
2023-04-23T21:48:42.449Z,0.50
2023-04-23T21:51:19.075Z,0.40
2023-04-23T21:53:45.926Z,0.45
2023-04-23T21:56:23.203Z,0.38
2023-04-23T21:58:54.832Z,0.22
2023-04-23T22:01:23.766Z,0.50
2023-04-23T22:03:54.174Z,0.40
2023-04-23T22:06:26.235Z,0.40
2023-04-23T22:08:56.403Z,0.22
2023-04-23T22:11:28.147Z,0.40
2023-04-23T22:14:12.592Z,0.30
2023-04-23T22:16:45.921Z,0.30
2023-04-23T22:19:16.288Z,0.30
2023-04-23T22:21:44.748Z,0.30
2023-04-23T22:24:15.467Z,0.50
2023-04-23T22:26:51.289Z,0.40
2023-04-23T22:29:20.638Z,0.32
2023-04-23T22:31:50.254Z,0.40
2023-04-23T22:37:02.534Z,0.60
2023-04-23T22:45:02.121Z,0.80
2023-04-23T22:47:34.503Z,0.70
2023-04-23T22:50:08.105Z,0.60
2023-04-23T22:55:19.422Z,0.70
2023-04-23T22:57:50.294Z,0.35
2023-04-23T23:03:01.398Z,0.50
2023-04-23T23:05:34.019Z,0.35
2023-04-23T23:08:04.066Z,0.30
2023-04-23T23:10:33.019Z,0.30
2023-04-23T23:13:04.012Z,0.40
2023-04-23T23:15:39.792Z,0.30
2023-04-23T23:18:15.873Z,0.40
2023-04-23T23:20:48.054Z,0.30
2023-04-23T23:25:59.451Z,0.30
2023-04-23T23:28:32.629Z,0.30
2023-04-23T23:31:00.707Z,0.30
2023-04-23T23:33:55.170Z,0.30
2023-04-23T23:36:22.514Z,0.30
2023-04-23T23:38:55.029Z,0.20
2023-04-23T23:41:24.606Z,0.20
2023-04-23T23:43:54.336Z,0.20
2023-04-23T23:46:27.840Z,0.20
2023-04-23T23:48:56.157Z,0.10
2023-04-23T23:51:26.287Z,0.20
2023-04-23T23:53:53.930Z,0.10
2023-04-23T23:56:25.345Z,0.10
2023-04-23T23:58:58.559Z,0.10
